sensor_id;sensor_type;location;lat;lon;timestamp;pressure;altitude;pressure_sealevel;temperature;humidity
48606;BME280;8482;54.396;18.590;2022-12-18T15:40:00;103426.13;;;-1.52;62.22
48606;BME280;8482;54.396;18.590;2022-12-18T15:42:28;103433.91;;;-1.54;63.67
48606;BME280;8482;54.396;18.590;2022-12-18T15:45:14;103432.19;;;-1.53;64.28
48606;BME280;8482;54.396;18.590;2022-12-18T15:47:41;103428.72;;;-1.52;64.19
48606;BME280;8482;54.396;18.590;2022-12-18T15:50:09;103433.94;;;-1.51;63.09
48606;BME280;8482;54.396;18.590;2022-12-18T15:52:47;103427.81;;;-1.55;63.44
48606;BME280;8482;54.396;18.590;2022-12-18T15:55:21;103434.75;;;-1.55;62.65
48606;BME280;8482;54.396;18.590;2022-12-18T15:58:08;103420.81;;;-1.57;62.78
48606;BME280;8482;54.396;18.590;2022-12-18T16:00:38;103418.19;;;-1.60;62.11
48606;BME280;8482;54.396;18.590;2022-12-18T16:03:05;103410.34;;;-1.63;61.76
48606;BME280;8482;54.396;18.590;2022-12-18T16:05:31;103406.84;;;-1.64;61.60
48606;BME280;8482;54.396;18.590;2022-12-18T16:07:58;103399.88;;;-1.65;61.99
48606;BME280;8482;54.396;18.590;2022-12-18T16:10:26;103419.00;;;-1.64;61.81
48606;BME280;8482;54.396;18.590;2022-12-18T16:12:52;103412.91;;;-1.65;61.48
48606;BME280;8482;54.396;18.590;2022-12-18T16:15:18;103411.19;;;-1.66;61.31
48606;BME280;8482;54.396;18.590;2022-12-18T16:17:45;103409.44;;;-1.67;61.12
48606;BME280;8482;54.396;18.590;2022-12-18T16:20:17;103438.00;;;-1.70;61.01
48606;BME280;8482;54.396;18.590;2022-12-18T16:22:44;103442.31;;;-1.72;60.42
48606;BME280;8482;54.396;18.590;2022-12-18T16:25:24;103456.09;;;-1.76;60.37
48606;BME280;8482;54.396;18.590;2022-12-18T16:27:51;103450.81;;;-1.81;59.94
48606;BME280;8482;54.396;18.590;2022-12-18T16:30:24;103458.63;;;-1.82;60.28
48606;BME280;8482;54.396;18.590;2022-12-18T16:32:56;103444.69;;;-1.85;59.91
48606;BME280;8482;54.396;18.590;2022-12-18T16:35:24;103424.75;;;-1.86;59.66
48606;BME280;8482;54.396;18.590;2022-12-18T16:37:50;103420.31;;;-1.90;60.07
48606;BME280;8482;54.396;18.590;2022-12-18T16:40:16;103410.75;;;-1.92;60.42
48606;BME280;8482;54.396;18.590;2022-12-18T16:42:45;103421.94;;;-1.98;60.29
48606;BME280;8482;54.396;18.590;2022-12-18T16:45:15;103407.13;;;-2.02;60.24
48606;BME280;8482;54.396;18.590;2022-12-18T16:47:42;103407.88;;;-2.08;60.37
48606;BME280;8482;54.396;18.590;2022-12-18T16:50:10;103406.06;;;-2.15;60.43
48606;BME280;8482;54.396;18.590;2022-12-18T16:52:36;103385.16;;;-2.20;60.38
48606;BME280;8482;54.396;18.590;2022-12-18T16:55:03;103396.38;;;-2.22;60.61
48606;BME280;8482;54.396;18.590;2022-12-18T16:57:29;103384.13;;;-2.29;61.06
48606;BME280;8482;54.396;18.590;2022-12-18T16:59:58;103387.56;;;-2.32;60.43
48606;BME280;8482;54.396;18.590;2022-12-18T17:02:26;103388.41;;;-2.33;61.49
48606;BME280;8482;54.396;18.590;2022-12-18T17:04:54;103411.81;;;-2.32;61.17
48606;BME280;8482;54.396;18.590;2022-12-18T17:07:20;103389.28;;;-2.31;61.48
48606;BME280;8482;54.396;18.590;2022-12-18T17:09:46;103409.28;;;-2.28;62.11
48606;BME280;8482;54.396;18.590;2022-12-18T17:12:12;103398.91;;;-2.27;62.08
48606;BME280;8482;54.396;18.590;2022-12-18T17:14:38;103395.50;;;-2.23;61.78
48606;BME280;8482;54.396;18.590;2022-12-18T17:17:04;103378.22;;;-2.21;61.85
48606;BME280;8482;54.396;18.590;2022-12-18T17:19:30;103370.47;;;-2.16;61.22
48606;BME280;8482;54.396;18.590;2022-12-18T17:21:57;103356.56;;;-2.20;61.75
48606;BME280;8482;54.396;18.590;2022-12-18T17:24:24;103365.34;;;-2.11;61.74
48606;BME280;8482;54.396;18.590;2022-12-18T17:26:50;103379.25;;;-2.09;61.51
48606;BME280;8482;54.396;18.590;2022-12-18T17:29:19;103385.31;;;-2.09;61.41
48606;BME280;8482;54.396;18.590;2022-12-18T17:31:46;103388.81;;;-2.08;61.15
48606;BME280;8482;54.396;18.590;2022-12-18T17:34:13;103384.47;;;-2.08;61.46
48606;BME280;8482;54.396;18.590;2022-12-18T17:36:39;103385.41;;;-2.04;61.69
48606;BME280;8482;54.396;18.590;2022-12-18T17:39:07;103392.41;;;-2.02;61.17
48606;BME280;8482;54.396;18.590;2022-12-18T17:41:34;103407.16;;;-1.99;61.21
48606;BME280;8482;54.396;18.590;2022-12-18T17:44:04;103418.44;;;-2.00;60.66
48606;BME280;8482;54.396;18.590;2022-12-18T17:46:32;103408.88;;;-2.01;60.69
48606;BME280;8482;54.396;18.590;2022-12-18T17:49:01;103412.38;;;-1.99;60.83
48606;BME280;8482;54.396;18.590;2022-12-18T17:51:28;103399.34;;;-2.01;60.37
48606;BME280;8482;54.396;18.590;2022-12-18T17:53:54;103408.06;;;-1.98;60.49
48606;BME280;8482;54.396;18.590;2022-12-18T17:56:22;103401.97;;;-2.01;60.76
48606;BME280;8482;54.396;18.590;2022-12-18T17:58:49;103400.22;;;-2.00;60.50
48606;BME280;8482;54.396;18.590;2022-12-18T18:01:22;103399.31;;;-2.02;60.73
48606;BME280;8482;54.396;18.590;2022-12-18T18:03:49;103389.59;;;-2.12;60.18
48606;BME280;8482;54.396;18.590;2022-12-18T18:06:15;103406.13;;;-2.09;59.93
48606;BME280;8482;54.396;18.590;2022-12-18T18:08:41;103403.50;;;-2.12;60.29
48606;BME280;8482;54.396;18.590;2022-12-18T18:11:13;103403.38;;;-2.20;60.04
48606;BME280;8482;54.396;18.590;2022-12-18T18:13:59;103411.19;;;-2.20;59.86
48606;BME280;8482;54.396;18.590;2022-12-18T18:16:32;103413.72;;;-2.23;59.72
48606;BME280;8482;54.396;18.590;2022-12-18T18:19:10;103405.00;;;-2.25;60.07
48606;BME280;8482;54.396;18.590;2022-12-18T18:21:39;103402.38;;;-2.26;59.69
48606;BME280;8482;54.396;18.590;2022-12-18T18:24:06;103404.09;;;-2.27;60.13
48606;BME280;8482;54.396;18.590;2022-12-18T18:26:34;103409.28;;;-2.28;60.35
48606;BME280;8482;54.396;18.590;2022-12-18T18:29:03;103422.22;;;-2.32;59.92
48606;BME280;8482;54.396;18.590;2022-12-18T18:31:31;103416.91;;;-2.38;59.92
48606;BME280;8482;54.396;18.590;2022-12-18T18:34:00;103416.09;;;-2.35;60.19
48606;BME280;8482;54.396;18.590;2022-12-18T18:36:26;103409.06;;;-2.41;59.64
48606;BME280;8482;54.396;18.590;2022-12-18T18:38:53;103397.53;;;-2.55;59.44
48606;BME280;8482;54.396;18.590;2022-12-18T18:41:20;103403.44;;;-2.63;59.19
48606;BME280;8482;54.396;18.590;2022-12-18T18:43:47;103402.44;;;-2.69;60.21
48606;BME280;8482;54.396;18.590;2022-12-18T18:46:14;103412.75;;;-2.75;60.32
48606;BME280;8482;54.396;18.590;2022-12-18T18:48:41;103399.66;;;-2.80;59.98
48606;BME280;8482;54.396;18.590;2022-12-18T18:51:16;103407.38;;;-2.85;60.76
48606;BME280;8482;54.396;18.590;2022-12-18T18:53:45;103415.03;;;-2.89;60.73
48606;BME280;8482;54.396;18.590;2022-12-18T18:56:14;103411.44;;;-2.96;60.51
48606;BME280;8482;54.396;18.590;2022-12-18T18:58:43;103415.59;;;-3.06;60.96
48606;BME280;8482;54.396;18.590;2022-12-18T19:01:18;103429.41;;;-3.07;61.50
48606;BME280;8482;54.396;18.590;2022-12-18T19:03:47;103436.25;;;-3.11;61.21
48606;BME280;8482;54.396;18.590;2022-12-18T19:06:22;103451.78;;;-3.14;61.09
48606;BME280;8482;54.396;18.590;2022-12-18T19:08:50;103444.84;;;-3.13;61.62
48606;BME280;8482;54.396;18.590;2022-12-18T19:11:17;103434.53;;;-3.12;61.35
48606;BME280;8482;54.396;18.590;2022-12-18T19:14:05;103438.88;;;-3.09;61.78
48606;BME280;8482;54.396;18.590;2022-12-18T19:16:32;103428.44;;;-3.11;61.42
48606;BME280;8482;54.396;18.590;2022-12-18T19:18:59;103432.84;;;-3.08;61.68
48606;BME280;8482;54.396;18.590;2022-12-18T19:21:25;103428.50;;;-3.09;61.75
48606;BME280;8482;54.396;18.590;2022-12-18T19:23:51;103424.16;;;-3.09;61.51
48606;BME280;8482;54.396;18.590;2022-12-18T19:26:18;103423.31;;;-3.09;62.16
48606;BME280;8482;54.396;18.590;2022-12-18T19:28:45;103438.84;;;-3.11;61.59
48606;BME280;8482;54.396;18.590;2022-12-18T19:31:14;103436.28;;;-3.09;61.95
48606;BME280;8482;54.396;18.590;2022-12-18T19:33:43;103439.81;;;-3.07;62.26
48606;BME280;8482;54.396;18.590;2022-12-18T19:36:11;103441.59;;;-3.04;61.94
48606;BME280;8482;54.396;18.590;2022-12-18T19:38:38;103433.81;;;-3.03;61.90
48606;BME280;8482;54.396;18.590;2022-12-18T19:41:06;103415.63;;;-3.04;61.56
48606;BME280;8482;54.396;18.590;2022-12-18T19:43:35;103429.44;;;-3.05;61.75
48606;BME280;8482;54.396;18.590;2022-12-18T19:46:06;103423.16;;;-3.15;61.58
48606;BME280;8482;54.396;18.590;2022-12-18T19:48:34;103434.63;;;-3.05;62.03
48606;BME280;8482;54.396;18.590;2022-12-18T19:51:08;103436.38;;;-3.04;62.12
48606;BME280;8482;54.396;18.590;2022-12-18T19:53:34;103437.25;;;-3.04;61.98
48606;BME280;8482;54.396;18.590;2022-12-18T19:56:08;103443.31;;;-3.05;61.59
48606;BME280;8482;54.396;18.590;2022-12-18T19:58:35;103445.91;;;-3.05;61.74
48606;BME280;8482;54.396;18.590;2022-12-18T20:01:02;103435.47;;;-3.06;62.17
48606;BME280;8482;54.396;18.590;2022-12-18T20:03:28;103429.44;;;-3.05;61.78
48606;BME280;8482;54.396;18.590;2022-12-18T20:05:54;103428.56;;;-3.06;61.77
48606;BME280;8482;54.396;18.590;2022-12-18T20:08:20;103432.88;;;-3.06;61.60
48606;BME280;8482;54.396;18.590;2022-12-18T20:10:45;103416.34;;;-3.12;61.25
48606;BME280;8482;54.396;18.590;2022-12-18T20:13:16;103418.03;;;-3.14;61.08
48606;BME280;8482;54.396;18.590;2022-12-18T20:15:42;103407.59;;;-3.15;61.49
48606;BME280;8482;54.396;18.590;2022-12-18T20:18:09;103408.38;;;-3.19;61.79
48606;BME280;8482;54.396;18.590;2022-12-18T20:20:35;103407.47;;;-3.21;61.87
48606;BME280;8482;54.396;18.590;2022-12-18T20:23:02;103407.47;;;-3.21;62.34
48606;BME280;8482;54.396;18.590;2022-12-18T20:25:32;103408.25;;;-3.24;61.76
48606;BME280;8482;54.396;18.590;2022-12-18T20:27:58;103403.88;;;-3.28;61.33
48606;BME280;8482;54.396;18.590;2022-12-18T20:30:25;103411.59;;;-3.30;62.43
48606;BME280;8482;54.396;18.590;2022-12-18T20:32:51;103412.41;;;-3.34;62.32
48606;BME280;8482;54.396;18.590;2022-12-18T20:35:17;103410.56;;;-3.38;62.01
48606;BME280;8482;54.396;18.590;2022-12-18T20:37:43;103421.84;;;-3.37;62.23
48606;BME280;8482;54.396;18.590;2022-12-18T20:40:12;103433.06;;;-3.39;62.68
48606;BME280;8482;54.396;18.590;2022-12-18T20:42:39;103437.34;;;-3.41;62.33
48606;BME280;8482;54.396;18.590;2022-12-18T20:45:06;103445.06;;;-3.42;62.70
48606;BME280;8482;54.396;18.590;2022-12-18T20:47:32;103449.38;;;-3.44;62.53
48606;BME280;8482;54.396;18.590;2022-12-18T20:49:58;103447.56;;;-3.47;62.85
48606;BME280;8482;54.396;18.590;2022-12-18T20:52:25;103440.38;;;-3.59;63.08
48606;BME280;8482;54.396;18.590;2022-12-18T20:54:51;103451.81;;;-3.50;63.21
48606;BME280;8482;54.396;18.590;2022-12-18T20:57:17;103452.56;;;-3.55;62.80
48606;BME280;8482;54.396;18.590;2022-12-18T20:59:43;103443.94;;;-3.54;63.17
48606;BME280;8482;54.396;18.590;2022-12-18T21:02:12;103456.06;;;-3.54;63.50
48606;BME280;8482;54.396;18.590;2022-12-18T21:04:38;103457.72;;;-3.56;63.42
48606;BME280;8482;54.396;18.590;2022-12-18T21:07:04;103455.06;;;-3.59;63.35
48606;BME280;8482;54.396;18.590;2022-12-18T21:09:31;103456.72;;;-3.63;63.56
48606;BME280;8482;54.396;18.590;2022-12-18T21:11:57;103465.34;;;-3.62;63.28
48606;BME280;8482;54.396;18.590;2022-12-18T21:14:43;103467.00;;;-3.66;63.49
48606;BME280;8482;54.396;18.590;2022-12-18T21:17:10;103460.78;;;-3.73;63.66
48606;BME280;8482;54.396;18.590;2022-12-18T21:19:36;103470.34;;;-3.72;63.82
48606;BME280;8482;54.396;18.590;2022-12-18T21:22:03;103469.41;;;-3.74;63.47
48606;BME280;8482;54.396;18.590;2022-12-18T21:24:29;103464.94;;;-3.79;63.89
48606;BME280;8482;54.396;18.590;2022-12-18T21:26:55;103470.19;;;-3.78;64.12
48606;BME280;8482;54.396;18.590;2022-12-18T21:29:24;103469.28;;;-3.80;64.30
48606;BME280;8482;54.396;18.590;2022-12-18T21:31:52;103459.56;;;-3.87;64.37
48606;BME280;8482;54.396;18.590;2022-12-18T21:34:25;103476.13;;;-3.82;63.89
48606;BME280;8482;54.396;18.590;2022-12-18T21:36:54;103484.78;;;-3.81;63.66
48606;BME280;8482;54.396;18.590;2022-12-18T21:39:21;103489.94;;;-3.83;64.04
48606;BME280;8482;54.396;18.590;2022-12-18T21:41:48;103482.03;;;-3.88;63.64
48606;BME280;8482;54.396;18.590;2022-12-18T21:44:33;103490.66;;;-3.89;64.16
48606;BME280;8482;54.396;18.590;2022-12-18T21:46:59;103488.91;;;-3.90;64.26
48606;BME280;8482;54.396;18.590;2022-12-18T21:49:25;103489.78;;;-3.89;64.80
48606;BME280;8482;54.396;18.590;2022-12-18T21:51:54;103490.66;;;-3.89;64.39
48606;BME280;8482;54.396;18.590;2022-12-18T21:54:21;103485.41;;;-3.90;64.17
48606;BME280;8482;54.396;18.590;2022-12-18T21:56:52;103490.56;;;-3.92;64.58
48606;BME280;8482;54.396;18.590;2022-12-18T21:59:35;103484.47;;;-3.94;64.41
48606;BME280;8482;54.396;18.590;2022-12-18T22:02:05;103491.41;;;-3.93;65.26
48606;BME280;8482;54.396;18.590;2022-12-18T22:04:32;103485.38;;;-3.92;65.26
48606;BME280;8482;54.396;18.590;2022-12-18T22:06:57;103479.34;;;-3.92;64.65
48606;BME280;8482;54.396;18.590;2022-12-18T22:09:24;103475.94;;;-3.90;65.13
48606;BME280;8482;54.396;18.590;2022-12-18T22:11:51;103475.94;;;-3.90;64.73
48606;BME280;8482;54.396;18.590;2022-12-18T22:14:19;103475.94;;;-3.90;65.13
48606;BME280;8482;54.396;18.590;2022-12-18T22:16:45;103489.78;;;-3.89;64.52
48606;BME280;8482;54.396;18.590;2022-12-18T22:19:12;103477.72;;;-3.87;65.51
48606;BME280;8482;54.396;18.590;2022-12-18T22:21:41;103477.63;;;-3.90;65.06
48606;BME280;8482;54.396;18.590;2022-12-18T22:24:22;103471.63;;;-3.89;65.12
48606;BME280;8482;54.396;18.590;2022-12-18T22:26:49;103470.75;;;-3.90;64.72
48606;BME280;8482;54.396;18.590;2022-12-18T22:29:22;103468.28;;;-3.85;65.59
48606;BME280;8482;54.396;18.590;2022-12-18T22:32:10;103467.41;;;-3.86;65.18
48606;BME280;8482;54.396;18.590;2022-12-18T22:34:37;103462.97;;;-3.90;65.07
48606;BME280;8482;54.396;18.590;2022-12-18T22:37:04;103468.25;;;-3.87;65.07
48606;BME280;8482;54.396;18.590;2022-12-18T22:39:30;103464.66;;;-3.90;65.41
